sensor_id;sensor_type;location;lat;lon;timestamp;temperature;humidity
20650;DHT22;10484;48.736;9.332;2024-03-22T00:00:05;10.00;1.00
20650;DHT22;10484;48.736;9.332;2024-03-22T00:02:30;10.00;1.00
20650;DHT22;10484;48.736;9.332;2024-03-22T00:04:56;9.90;1.00
20650;DHT22;10484;48.736;9.332;2024-03-22T00:07:21;9.80;1.00
20650;DHT22;10484;48.736;9.332;2024-03-22T00:09:47;9.80;1.00
20650;DHT22;10484;48.736;9.332;2024-03-22T00:12:12;9.80;1.00
20650;DHT22;10484;48.736;9.332;2024-03-22T00:14:38;9.80;1.00
20650;DHT22;10484;48.736;9.332;2024-03-22T00:17:04;9.80;1.00
20650;DHT22;10484;48.736;9.332;2024-03-22T00:19:29;9.70;1.00
20650;DHT22;10484;48.736;9.332;2024-03-22T00:21:55;9.60;1.00
20650;DHT22;10484;48.736;9.332;2024-03-22T00:24:20;9.60;1.00
20650;DHT22;10484;48.736;9.332;2024-03-22T00:26:46;9.60;1.00
20650;DHT22;10484;48.736;9.332;2024-03-22T00:29:11;9.50;1.00
20650;DHT22;10484;48.736;9.332;2024-03-22T00:31:37;9.50;1.00
20650;DHT22;10484;48.736;9.332;2024-03-22T00:34:02;9.50;1.00
20650;DHT22;10484;48.736;9.332;2024-03-22T00:36:28;9.50;1.00
20650;DHT22;10484;48.736;9.332;2024-03-22T00:38:53;9.40;1.00
20650;DHT22;10484;48.736;9.332;2024-03-22T00:41:19;9.40;1.00
20650;DHT22;10484;48.736;9.332;2024-03-22T00:43:44;9.30;1.00
20650;DHT22;10484;48.736;9.332;2024-03-22T00:46:10;9.30;1.00
20650;DHT22;10484;48.736;9.332;2024-03-22T00:48:36;9.30;1.00
20650;DHT22;10484;48.736;9.332;2024-03-22T00:51:02;9.30;1.00
20650;DHT22;10484;48.736;9.332;2024-03-22T00:53:27;9.20;1.00
20650;DHT22;10484;48.736;9.332;2024-03-22T00:55:54;9.20;1.00
20650;DHT22;10484;48.736;9.332;2024-03-22T00:58:21;9.10;1.00
20650;DHT22;10484;48.736;9.332;2024-03-22T01:00:47;9.10;1.00
20650;DHT22;10484;48.736;9.332;2024-03-22T01:03:13;9.00;1.00
20650;DHT22;10484;48.736;9.332;2024-03-22T01:05:39;9.00;1.00
20650;DHT22;10484;48.736;9.332;2024-03-22T01:08:06;8.90;1.00
20650;DHT22;10484;48.736;9.332;2024-03-22T01:10:33;8.90;1.00
20650;DHT22;10484;48.736;9.332;2024-03-22T01:12:59;8.80;1.00
20650;DHT22;10484;48.736;9.332;2024-03-22T01:15:25;8.80;1.00
20650;DHT22;10484;48.736;9.332;2024-03-22T01:17:50;8.80;1.00
20650;DHT22;10484;48.736;9.332;2024-03-22T01:20:17;8.80;1.00
20650;DHT22;10484;48.736;9.332;2024-03-22T01:22:42;8.70;1.00
20650;DHT22;10484;48.736;9.332;2024-03-22T01:25:08;8.70;1.00
20650;DHT22;10484;48.736;9.332;2024-03-22T01:27:35;8.70;1.00
20650;DHT22;10484;48.736;9.332;2024-03-22T01:30:01;8.60;1.00
20650;DHT22;10484;48.736;9.332;2024-03-22T01:32:27;8.60;1.00
20650;DHT22;10484;48.736;9.332;2024-03-22T01:34:52;8.60;1.00
20650;DHT22;10484;48.736;9.332;2024-03-22T01:37:18;8.50;1.00
20650;DHT22;10484;48.736;9.332;2024-03-22T01:39:44;8.50;1.00
20650;DHT22;10484;48.736;9.332;2024-03-22T01:42:09;8.40;1.00
20650;DHT22;10484;48.736;9.332;2024-03-22T01:44:35;8.40;1.00
20650;DHT22;10484;48.736;9.332;2024-03-22T01:47:01;8.40;1.00
20650;DHT22;10484;48.736;9.332;2024-03-22T01:49:27;8.40;1.00
20650;DHT22;10484;48.736;9.332;2024-03-22T01:51:52;8.30;1.00
20650;DHT22;10484;48.736;9.332;2024-03-22T01:54:19;8.30;1.00
20650;DHT22;10484;48.736;9.332;2024-03-22T01:56:45;8.20;1.00
20650;DHT22;10484;48.736;9.332;2024-03-22T01:59:12;8.20;1.00
20650;DHT22;10484;48.736;9.332;2024-03-22T02:01:38;8.20;1.00
20650;DHT22;10484;48.736;9.332;2024-03-22T02:04:04;8.10;1.00
20650;DHT22;10484;48.736;9.332;2024-03-22T02:06:30;8.10;1.00
20650;DHT22;10484;48.736;9.332;2024-03-22T02:08:56;8.10;1.00
20650;DHT22;10484;48.736;9.332;2024-03-22T02:11:23;8.10;1.00
20650;DHT22;10484;48.736;9.332;2024-03-22T02:13:49;8.00;1.00
20650;DHT22;10484;48.736;9.332;2024-03-22T02:16:14;7.90;1.00
20650;DHT22;10484;48.736;9.332;2024-03-22T02:18:40;7.90;1.00
20650;DHT22;10484;48.736;9.332;2024-03-22T02:21:05;7.90;1.00
20650;DHT22;10484;48.736;9.332;2024-03-22T02:23:39;7.80;1.00
20650;DHT22;10484;48.736;9.332;2024-03-22T02:26:05;7.80;1.00
20650;DHT22;10484;48.736;9.332;2024-03-22T02:28:32;7.80;1.00
20650;DHT22;10484;48.736;9.332;2024-03-22T02:30:59;7.70;1.00
20650;DHT22;10484;48.736;9.332;2024-03-22T02:33:25;7.80;1.00
20650;DHT22;10484;48.736;9.332;2024-03-22T02:35:51;7.70;1.00
20650;DHT22;10484;48.736;9.332;2024-03-22T02:38:17;7.70;1.00
20650;DHT22;10484;48.736;9.332;2024-03-22T02:40:44;7.70;1.00
20650;DHT22;10484;48.736;9.332;2024-03-22T02:43:10;7.70;1.00
20650;DHT22;10484;48.736;9.332;2024-03-22T02:45:35;7.70;1.00
20650;DHT22;10484;48.736;9.332;2024-03-22T02:48:01;7.60;1.00
20650;DHT22;10484;48.736;9.332;2024-03-22T02:50:27;7.60;1.00
20650;DHT22;10484;48.736;9.332;2024-03-22T02:52:52;7.60;1.00
20650;DHT22;10484;48.736;9.332;2024-03-22T02:55:18;7.60;1.00
20650;DHT22;10484;48.736;9.332;2024-03-22T02:57:43;7.50;1.00
20650;DHT22;10484;48.736;9.332;2024-03-22T03:00:09;7.50;1.00
20650;DHT22;10484;48.736;9.332;2024-03-22T03:02:35;7.50;1.00
20650;DHT22;10484;48.736;9.332;2024-03-22T03:05:01;7.50;1.00
20650;DHT22;10484;48.736;9.332;2024-03-22T03:07:27;7.40;1.00
20650;DHT22;10484;48.736;9.332;2024-03-22T03:09:55;7.40;1.00
20650;DHT22;10484;48.736;9.332;2024-03-22T03:12:21;7.40;1.00
20650;DHT22;10484;48.736;9.332;2024-03-22T03:14:46;7.40;1.00
20650;DHT22;10484;48.736;9.332;2024-03-22T03:17:12;7.30;1.00
20650;DHT22;10484;48.736;9.332;2024-03-22T03:19:37;7.20;1.00
20650;DHT22;10484;48.736;9.332;2024-03-22T03:22:03;7.20;1.00
20650;DHT22;10484;48.736;9.332;2024-03-22T03:24:29;7.20;1.00
20650;DHT22;10484;48.736;9.332;2024-03-22T03:26:54;7.20;1.00
20650;DHT22;10484;48.736;9.332;2024-03-22T03:29:20;7.20;1.00
20650;DHT22;10484;48.736;9.332;2024-03-22T03:31:46;7.10;1.00
20650;DHT22;10484;48.736;9.332;2024-03-22T03:34:11;7.10;1.00
20650;DHT22;10484;48.736;9.332;2024-03-22T03:36:37;7.10;1.00
20650;DHT22;10484;48.736;9.332;2024-03-22T03:39:03;7.00;1.00
20650;DHT22;10484;48.736;9.332;2024-03-22T03:41:29;7.10;1.00
20650;DHT22;10484;48.736;9.332;2024-03-22T03:43:55;7.10;1.00
20650;DHT22;10484;48.736;9.332;2024-03-22T03:46:20;7.00;1.00
20650;DHT22;10484;48.736;9.332;2024-03-22T03:48:46;7.00;1.00
20650;DHT22;10484;48.736;9.332;2024-03-22T03:51:12;7.00;1.00
20650;DHT22;10484;48.736;9.332;2024-03-22T03:53:37;7.00;1.00
20650;DHT22;10484;48.736;9.332;2024-03-22T03:56:03;6.90;1.00
20650;DHT22;10484;48.736;9.332;2024-03-22T03:58:29;6.90;1.00
20650;DHT22;10484;48.736;9.332;2024-03-22T04:00:54;7.00;1.00
20650;DHT22;10484;48.736;9.332;2024-03-22T04:03:20;7.00;1.00
20650;DHT22;10484;48.736;9.332;2024-03-22T04:05:45;6.90;1.00
20650;DHT22;10484;48.736;9.332;2024-03-22T04:08:11;6.90;1.00
20650;DHT22;10484;48.736;9.332;2024-03-22T04:10:37;6.90;1.00
20650;DHT22;10484;48.736;9.332;2024-03-22T04:13:02;6.90;1.00
20650;DHT22;10484;48.736;9.332;2024-03-22T04:15:28;6.80;1.00
20650;DHT22;10484;48.736;9.332;2024-03-22T04:17:56;6.80;1.00
20650;DHT22;10484;48.736;9.332;2024-03-22T04:20:21;6.80;1.00
20650;DHT22;10484;48.736;9.332;2024-03-22T04:22:47;6.80;1.00
20650;DHT22;10484;48.736;9.332;2024-03-22T04:25:15;6.80;1.00
20650;DHT22;10484;48.736;9.332;2024-03-22T04:27:40;6.70;1.00
20650;DHT22;10484;48.736;9.332;2024-03-22T04:30:06;6.70;1.00
20650;DHT22;10484;48.736;9.332;2024-03-22T04:32:32;6.70;1.00
20650;DHT22;10484;48.736;9.332;2024-03-22T04:34:57;6.70;1.00
20650;DHT22;10484;48.736;9.332;2024-03-22T04:37:23;6.60;1.00
20650;DHT22;10484;48.736;9.332;2024-03-22T04:39:49;6.60;1.00
20650;DHT22;10484;48.736;9.332;2024-03-22T04:42:15;6.60;1.00
20650;DHT22;10484;48.736;9.332;2024-03-22T04:44:41;6.60;1.00
20650;DHT22;10484;48.736;9.332;2024-03-22T04:47:07;6.50;1.00
20650;DHT22;10484;48.736;9.332;2024-03-22T04:49:32;6.50;1.00
20650;DHT22;10484;48.736;9.332;2024-03-22T04:51:58;6.50;1.00
20650;DHT22;10484;48.736;9.332;2024-03-22T04:54:24;6.50;1.00
20650;DHT22;10484;48.736;9.332;2024-03-22T04:56:50;6.50;1.00
20650;DHT22;10484;48.736;9.332;2024-03-22T04:59:15;6.50;1.00
20650;DHT22;10484;48.736;9.332;2024-03-22T05:01:41;6.40;1.00
20650;DHT22;10484;48.736;9.332;2024-03-22T05:04:07;6.40;1.00
20650;DHT22;10484;48.736;9.332;2024-03-22T05:06:32;6.40;1.00
20650;DHT22;10484;48.736;9.332;2024-03-22T05:08:58;6.40;1.00
20650;DHT22;10484;48.736;9.332;2024-03-22T05:11:23;6.40;1.00
20650;DHT22;10484;48.736;9.332;2024-03-22T05:13:49;6.40;1.00
20650;DHT22;10484;48.736;9.332;2024-03-22T05:16:15;6.40;1.00
20650;DHT22;10484;48.736;9.332;2024-03-22T05:18:40;6.40;1.00
20650;DHT22;10484;48.736;9.332;2024-03-22T05:21:06;6.40;1.00
20650;DHT22;10484;48.736;9.332;2024-03-22T05:23:31;6.40;1.00
20650;DHT22;10484;48.736;9.332;2024-03-22T05:25:57;6.30;1.00
20650;DHT22;10484;48.736;9.332;2024-03-22T05:28:25;6.30;1.00
20650;DHT22;10484;48.736;9.332;2024-03-22T05:30:50;6.30;1.00
20650;DHT22;10484;48.736;9.332;2024-03-22T05:33:16;6.40;1.00
20650;DHT22;10484;48.736;9.332;2024-03-22T05:35:41;6.40;1.00
20650;DHT22;10484;48.736;9.332;2024-03-22T05:38:07;6.40;1.00
20650;DHT22;10484;48.736;9.332;2024-03-22T05:40:35;6.40;1.00
20650;DHT22;10484;48.736;9.332;2024-03-22T05:43:01;6.40;1.00
20650;DHT22;10484;48.736;9.332;2024-03-22T05:45:26;6.40;1.00
20650;DHT22;10484;48.736;9.332;2024-03-22T05:47:52;6.40;1.00
20650;DHT22;10484;48.736;9.332;2024-03-22T05:50:17;6.40;1.00
20650;DHT22;10484;48.736;9.332;2024-03-22T05:52:43;6.40;1.00
20650;DHT22;10484;48.736;9.332;2024-03-22T05:55:09;6.40;1.00
20650;DHT22;10484;48.736;9.332;2024-03-22T05:57:34;6.40;1.60
20650;DHT22;10484;48.736;9.332;2024-03-22T06:00:00;6.40;2.00
20650;DHT22;10484;48.736;9.332;2024-03-22T06:02:25;6.40;2.80
20650;DHT22;10484;48.736;9.332;2024-03-22T06:04:51;6.50;3.80
20650;DHT22;10484;48.736;9.332;2024-03-22T06:07:16;6.50;4.40
20650;DHT22;10484;48.736;9.332;2024-03-22T06:09:43;6.50;5.40
20650;DHT22;10484;48.736;9.332;2024-03-22T06:12:12;6.50;6.10
20650;DHT22;10484;48.736;9.332;2024-03-22T06:14:42;6.60;7.40
20650;DHT22;10484;48.736;9.332;2024-03-22T06:17:12;6.60;8.30
20650;DHT22;10484;48.736;9.332;2024-03-22T06:19:37;6.60;8.80
20650;DHT22;10484;48.736;9.332;2024-03-22T06:22:03;6.60;9.20
20650;DHT22;10484;48.736;9.332;2024-03-22T06:24:29;6.70;9.50
20650;DHT22;10484;48.736;9.332;2024-03-22T06:26:55;6.70;10.10
20650;DHT22;10484;48.736;9.332;2024-03-22T06:29:20;6.70;10.40
20650;DHT22;10484;48.736;9.332;2024-03-22T06:31:46;6.70;10.50
20650;DHT22;10484;48.736;9.332;2024-03-22T06:34:12;6.70;10.80
20650;DHT22;10484;48.736;9.332;2024-03-22T06:36:38;6.80;10.80
20650;DHT22;10484;48.736;9.332;2024-03-22T06:39:03;6.80;10.50
20650;DHT22;10484;48.736;9.332;2024-03-22T06:41:32;6.80;10.60
20650;DHT22;10484;48.736;9.332;2024-03-22T06:43:58;6.80;10.80
20650;DHT22;10484;48.736;9.332;2024-03-22T06:46:24;6.90;11.00
20650;DHT22;10484;48.736;9.332;2024-03-22T06:48:50;6.90;10.90
20650;DHT22;10484;48.736;9.332;2024-03-22T06:51:16;6.90;11.20
20650;DHT22;10484;48.736;9.332;2024-03-22T06:53:41;6.90;11.20
20650;DHT22;10484;48.736;9.332;2024-03-22T06:56:07;6.90;11.50
20650;DHT22;10484;48.736;9.332;2024-03-22T06:58:38;6.90;11.60
20650;DHT22;10484;48.736;9.332;2024-03-22T07:01:03;6.90;12.10
20650;DHT22;10484;48.736;9.332;2024-03-22T07:03:29;7.00;12.20
20650;DHT22;10484;48.736;9.332;2024-03-22T07:05:55;7.00;13.00
20650;DHT22;10484;48.736;9.332;2024-03-22T07:08:21;7.10;14.00
20650;DHT22;10484;48.736;9.332;2024-03-22T07:10:46;7.10;14.20
20650;DHT22;10484;48.736;9.332;2024-03-22T07:13:12;7.10;16.00
20650;DHT22;10484;48.736;9.332;2024-03-22T07:15:37;7.20;17.10
20650;DHT22;10484;48.736;9.332;2024-03-22T07:18:03;7.20;18.10
20650;DHT22;10484;48.736;9.332;2024-03-22T07:20:30;7.30;19.10
20650;DHT22;10484;48.736;9.332;2024-03-22T07:22:56;7.30;20.50
20650;DHT22;10484;48.736;9.332;2024-03-22T07:25:21;7.30;22.10
20650;DHT22;10484;48.736;9.332;2024-03-22T07:27:47;7.40;24.40
20650;DHT22;10484;48.736;9.332;2024-03-22T07:30:14;7.40;24.10
20650;DHT22;10484;48.736;9.332;2024-03-22T07:32:40;7.50;25.00
20650;DHT22;10484;48.736;9.332;2024-03-22T07:35:06;7.50;23.90
20650;DHT22;10484;48.736;9.332;2024-03-22T07:37:33;7.60;24.40
20650;DHT22;10484;48.736;9.332;2024-03-22T07:39:59;7.60;25.90
20650;DHT22;10484;48.736;9.332;2024-03-22T07:42:25;7.70;27.40
20650;DHT22;10484;48.736;9.332;2024-03-22T07:44:50;7.70;28.00
20650;DHT22;10484;48.736;9.332;2024-03-22T07:47:16;7.80;28.20
20650;DHT22;10484;48.736;9.332;2024-03-22T07:49:42;7.80;29.50
20650;DHT22;10484;48.736;9.332;2024-03-22T07:52:07;7.90;29.80
20650;DHT22;10484;48.736;9.332;2024-03-22T07:54:33;7.90;33.30
20650;DHT22;10484;48.736;9.332;2024-03-22T07:56:58;8.00;28.70
20650;DHT22;10484;48.736;9.332;2024-03-22T07:59:24;8.10;26.80
20650;DHT22;10484;48.736;9.332;2024-03-22T08:01:50;8.20;26.30
20650;DHT22;10484;48.736;9.332;2024-03-22T08:04:15;8.40;25.10
20650;DHT22;10484;48.736;9.332;2024-03-22T08:06:41;8.40;23.60
20650;DHT22;10484;48.736;9.332;2024-03-22T08:09:07;8.60;22.70
20650;DHT22;10484;48.736;9.332;2024-03-22T08:11:33;8.60;21.40
20650;DHT22;10484;48.736;9.332;2024-03-22T08:13:59;8.70;20.60
20650;DHT22;10484;48.736;9.332;2024-03-22T08:16:29;8.80;20.10
20650;DHT22;10484;48.736;9.332;2024-03-22T08:18:55;9.00;18.60
20650;DHT22;10484;48.736;9.332;2024-03-22T08:21:22;9.10;17.00
20650;DHT22;10484;48.736;9.332;2024-03-22T08:23:48;9.20;15.50
20650;DHT22;10484;48.736;9.332;2024-03-22T08:26:13;9.30;13.90
20650;DHT22;10484;48.736;9.332;2024-03-22T08:28:39;9.40;12.90
20650;DHT22;10484;48.736;9.332;2024-03-22T08:31:05;9.50;12.10
20650;DHT22;10484;48.736;9.332;2024-03-22T08:33:31;9.50;11.30
20650;DHT22;10484;48.736;9.332;2024-03-22T08:35:56;9.50;10.60
20650;DHT22;10484;48.736;9.332;2024-03-22T08:38:22;9.60;10.40
20650;DHT22;10484;48.736;9.332;2024-03-22T08:40:50;9.60;11.00
20650;DHT22;10484;48.736;9.332;2024-03-22T08:43:15;9.70;10.10
20650;DHT22;10484;48.736;9.332;2024-03-22T08:45:41;9.80;10.30
20650;DHT22;10484;48.736;9.332;2024-03-22T08:48:07;9.80;10.50
20650;DHT22;10484;48.736;9.332;2024-03-22T08:50:33;10.00;9.80
20650;DHT22;10484;48.736;9.332;2024-03-22T08:52:59;10.10;9.70
20650;DHT22;10484;48.736;9.332;2024-03-22T08:55:24;10.20;9.00
20650;DHT22;10484;48.736;9.332;2024-03-22T08:57:50;10.30;8.60
20650;DHT22;10484;48.736;9.332;2024-03-22T09:00:16;10.30;7.80
20650;DHT22;10484;48.736;9.332;2024-03-22T09:02:42;10.40;7.20
20650;DHT22;10484;48.736;9.332;2024-03-22T09:05:08;10.50;7.40
20650;DHT22;10484;48.736;9.332;2024-03-22T09:07:34;10.60;6.30
20650;DHT22;10484;48.736;9.332;2024-03-22T09:09:59;10.70;5.30
20650;DHT22;10484;48.736;9.332;2024-03-22T09:12:25;10.80;3.90
20650;DHT22;10484;48.736;9.332;2024-03-22T09:14:50;10.90;3.20
20650;DHT22;10484;48.736;9.332;2024-03-22T09:17:16;10.90;2.30
20650;DHT22;10484;48.736;9.332;2024-03-22T09:19:42;10.90;1.80
20650;DHT22;10484;48.736;9.332;2024-03-22T09:22:07;11.00;1.40
20650;DHT22;10484;48.736;9.332;2024-03-22T09:24:33;11.00;1.20
20650;DHT22;10484;48.736;9.332;2024-03-22T09:26:58;11.10;1.30
20650;DHT22;10484;48.736;9.332;2024-03-22T09:29:24;11.20;1.00
20650;DHT22;10484;48.736;9.332;2024-03-22T09:31:49;11.30;1.00
20650;DHT22;10484;48.736;9.332;2024-03-22T09:34:16;11.40;1.00
20650;DHT22;10484;48.736;9.332;2024-03-22T09:36:42;11.50;1.00
20650;DHT22;10484;48.736;9.332;2024-03-22T09:39:07;11.70;1.00
20650;DHT22;10484;48.736;9.332;2024-03-22T09:41:37;11.80;1.00
20650;DHT22;10484;48.736;9.332;2024-03-22T09:44:05;11.90;1.00
20650;DHT22;10484;48.736;9.332;2024-03-22T09:46:33;12.10;1.00
20650;DHT22;10484;48.736;9.332;2024-03-22T09:49:01;12.20;1.00
20650;DHT22;10484;48.736;9.332;2024-03-22T09:51:27;12.30;1.00
20650;DHT22;10484;48.736;9.332;2024-03-22T09:53:54;12.50;1.00
20650;DHT22;10484;48.736;9.332;2024-03-22T09:56:21;12.60;1.00
20650;DHT22;10484;48.736;9.332;2024-03-22T09:58:47;12.80;1.00
20650;DHT22;10484;48.736;9.332;2024-03-22T10:01:14;12.90;1.00
20650;DHT22;10484;48.736;9.332;2024-03-22T10:03:40;13.10;1.00
20650;DHT22;10484;48.736;9.332;2024-03-22T10:06:06;13.20;1.00
20650;DHT22;10484;48.736;9.332;2024-03-22T10:08:31;13.30;1.00
20650;DHT22;10484;48.736;9.332;2024-03-22T10:10:57;13.40;1.00
20650;DHT22;10484;48.736;9.332;2024-03-22T10:13:23;13.50;1.00
20650;DHT22;10484;48.736;9.332;2024-03-22T10:15:49;13.60;1.00
20650;DHT22;10484;48.736;9.332;2024-03-22T10:18:14;13.80;1.00
20650;DHT22;10484;48.736;9.332;2024-03-22T10:20:41;14.00;1.00
20650;DHT22;10484;48.736;9.332;2024-03-22T10:23:08;14.30;1.00
20650;DHT22;10484;48.736;9.332;2024-03-22T10:25:34;14.50;1.00
20650;DHT22;10484;48.736;9.332;2024-03-22T10:27:59;14.50;1.00
20650;DHT22;10484;48.736;9.332;2024-03-22T10:30:25;14.50;1.00
20650;DHT22;10484;48.736;9.332;2024-03-22T10:32:52;14.50;1.00
20650;DHT22;10484;48.736;9.332;2024-03-22T10:35:18;14.60;1.00
20650;DHT22;10484;48.736;9.332;2024-03-22T10:37:44;14.80;1.00
20650;DHT22;10484;48.736;9.332;2024-03-22T10:40:10;14.90;1.00
20650;DHT22;10484;48.736;9.332;2024-03-22T10:42:38;14.90;1.00
20650;DHT22;10484;48.736;9.332;2024-03-22T10:45:06;14.90;1.00
20650;DHT22;10484;48.736;9.332;2024-03-22T10:47:34;14.90;1.00
20650;DHT22;10484;48.736;9.332;2024-03-22T10:50:04;14.90;1.00
20650;DHT22;10484;48.736;9.332;2024-03-22T10:52:34;15.10;1.00
20650;DHT22;10484;48.736;9.332;2024-03-22T10:55:03;15.10;1.00
20650;DHT22;10484;48.736;9.332;2024-03-22T10:57:30;15.20;1.00
20650;DHT22;10484;48.736;9.332;2024-03-22T10:59:56;15.40;1.00
20650;DHT22;10484;48.736;9.332;2024-03-22T11:02:24;15.40;1.00
20650;DHT22;10484;48.736;9.332;2024-03-22T11:04:58;15.50;1.00
20650;DHT22;10484;48.736;9.332;2024-03-22T11:07:29;15.70;1.00
20650;DHT22;10484;48.736;9.332;2024-03-22T11:09:58;15.80;1.00
20650;DHT22;10484;48.736;9.332;2024-03-22T11:12:25;15.80;1.00
20650;DHT22;10484;48.736;9.332;2024-03-22T11:14:55;15.80;1.00
20650;DHT22;10484;48.736;9.332;2024-03-22T11:17:21;15.80;1.00
20650;DHT22;10484;48.736;9.332;2024-03-22T11:19:53;15.80;1.00
20650;DHT22;10484;48.736;9.332;2024-03-22T11:22:18;15.80;1.00
20650;DHT22;10484;48.736;9.332;2024-03-22T11:24:44;15.80;1.00
20650;DHT22;10484;48.736;9.332;2024-03-22T11:27:11;15.80;1.00
20650;DHT22;10484;48.736;9.332;2024-03-22T11:29:39;15.90;1.00
20650;DHT22;10484;48.736;9.332;2024-03-22T11:32:07;16.00;1.00
20650;DHT22;10484;48.736;9.332;2024-03-22T11:34:37;16.10;1.00
20650;DHT22;10484;48.736;9.332;2024-03-22T11:37:07;16.30;1.00
20650;DHT22;10484;48.736;9.332;2024-03-22T11:39:38;16.50;1.00
20650;DHT22;10484;48.736;9.332;2024-03-22T11:42:05;16.50;1.00
20650;DHT22;10484;48.736;9.332;2024-03-22T11:44:32;16.50;1.00
20650;DHT22;10484;48.736;9.332;2024-03-22T11:46:59;16.50;1.00
20650;DHT22;10484;48.736;9.332;2024-03-22T11:49:25;16.40;1.00
20650;DHT22;10484;48.736;9.332;2024-03-22T11:51:52;16.50;1.00
20650;DHT22;10484;48.736;9.332;2024-03-22T11:54:19;16.50;1.00
20650;DHT22;10484;48.736;9.332;2024-03-22T11:56:45;16.60;1.00
20650;DHT22;10484;48.736;9.332;2024-03-22T11:59:11;16.60;1.00
20650;DHT22;10484;48.736;9.332;2024-03-22T12:01:37;16.60;1.00
20650;DHT22;10484;48.736;9.332;2024-03-22T12:04:02;16.70;1.00
20650;DHT22;10484;48.736;9.332;2024-03-22T12:06:28;16.80;1.00
20650;DHT22;10484;48.736;9.332;2024-03-22T12:08:53;16.90;1.00
20650;DHT22;10484;48.736;9.332;2024-03-22T12:11:19;17.10;1.00
20650;DHT22;10484;48.736;9.332;2024-03-22T12:13:45;17.30;1.00
20650;DHT22;10484;48.736;9.332;2024-03-22T12:16:10;17.40;1.00
20650;DHT22;10484;48.736;9.332;2024-03-22T12:18:36;17.40;1.00
20650;DHT22;10484;48.736;9.332;2024-03-22T12:21:01;17.50;1.00
20650;DHT22;10484;48.736;9.332;2024-03-22T12:23:27;17.70;1.00
20650;DHT22;10484;48.736;9.332;2024-03-22T12:25:53;17.60;1.00
20650;DHT22;10484;48.736;9.332;2024-03-22T12:28:20;17.50;1.00
20650;DHT22;10484;48.736;9.332;2024-03-22T12:30:46;17.50;1.00
20650;DHT22;10484;48.736;9.332;2024-03-22T12:33:12;17.50;1.00
20650;DHT22;10484;48.736;9.332;2024-03-22T12:35:39;17.60;1.00
20650;DHT22;10484;48.736;9.332;2024-03-22T12:38:06;17.60;1.00
20650;DHT22;10484;48.736;9.332;2024-03-22T12:40:32;17.60;1.00
20650;DHT22;10484;48.736;9.332;2024-03-22T12:42:58;17.60;1.00
20650;DHT22;10484;48.736;9.332;2024-03-22T12:45:24;17.70;1.00
20650;DHT22;10484;48.736;9.332;2024-03-22T12:47:50;17.70;1.00
20650;DHT22;10484;48.736;9.332;2024-03-22T12:50:15;17.80;1.00
20650;DHT22;10484;48.736;9.332;2024-03-22T12:52:41;17.90;1.00
20650;DHT22;10484;48.736;9.332;2024-03-22T12:55:09;18.00;1.00
20650;DHT22;10484;48.736;9.332;2024-03-22T12:57:35;18.00;1.00
20650;DHT22;10484;48.736;9.332;2024-03-22T13:00:00;18.00;1.00
20650;DHT22;10484;48.736;9.332;2024-03-22T13:02:26;18.00;1.00
20650;DHT22;10484;48.736;9.332;2024-03-22T13:04:52;18.10;1.00
20650;DHT22;10484;48.736;9.332;2024-03-22T13:07:21;18.10;1.00
20650;DHT22;10484;48.736;9.332;2024-03-22T13:09:47;18.10;1.00
20650;DHT22;10484;48.736;9.332;2024-03-22T13:12:12;18.10;1.00
20650;DHT22;10484;48.736;9.332;2024-03-22T13:14:38;18.20;1.00
20650;DHT22;10484;48.736;9.332;2024-03-22T13:17:03;18.20;1.00
20650;DHT22;10484;48.736;9.332;2024-03-22T13:19:29;18.20;1.00
20650;DHT22;10484;48.736;9.332;2024-03-22T13:21:55;18.30;1.00
20650;DHT22;10484;48.736;9.332;2024-03-22T13:24:20;18.30;1.00
20650;DHT22;10484;48.736;9.332;2024-03-22T13:26:46;18.30;1.00
20650;DHT22;10484;48.736;9.332;2024-03-22T13:29:12;18.40;1.00
20650;DHT22;10484;48.736;9.332;2024-03-22T13:31:39;18.40;1.00
20650;DHT22;10484;48.736;9.332;2024-03-22T13:34:05;18.50;1.00
20650;DHT22;10484;48.736;9.332;2024-03-22T13:36:30;18.60;1.00
20650;DHT22;10484;48.736;9.332;2024-03-22T13:38:58;18.60;1.00
20650;DHT22;10484;48.736;9.332;2024-03-22T13:41:24;18.60;1.00
20650;DHT22;10484;48.736;9.332;2024-03-22T13:43:49;18.60;1.00
20650;DHT22;10484;48.736;9.332;2024-03-22T13:46:15;18.70;1.00
20650;DHT22;10484;48.736;9.332;2024-03-22T13:48:42;18.70;1.00
20650;DHT22;10484;48.736;9.332;2024-03-22T13:51:08;18.80;1.00
20650;DHT22;10484;48.736;9.332;2024-03-22T13:53:34;18.90;1.00
20650;DHT22;10484;48.736;9.332;2024-03-22T13:56:00;19.00;1.00
20650;DHT22;10484;48.736;9.332;2024-03-22T13:58:26;19.00;1.00
20650;DHT22;10484;48.736;9.332;2024-03-22T14:00:52;19.00;1.00
20650;DHT22;10484;48.736;9.332;2024-03-22T14:03:18;19.00;1.00
20650;DHT22;10484;48.736;9.332;2024-03-22T14:05:44;19.00;1.00
20650;DHT22;10484;48.736;9.332;2024-03-22T14:08:09;19.00;1.00
20650;DHT22;10484;48.736;9.332;2024-03-22T14:10:35;19.10;1.00
20650;DHT22;10484;48.736;9.332;2024-03-22T14:13:01;19.30;1.00
20650;DHT22;10484;48.736;9.332;2024-03-22T14:15:27;19.40;1.00
20650;DHT22;10484;48.736;9.332;2024-03-22T14:17:57;19.50;1.00
20650;DHT22;10484;48.736;9.332;2024-03-22T14:20:23;19.50;1.00
20650;DHT22;10484;48.736;9.332;2024-03-22T14:22:50;19.60;1.00
20650;DHT22;10484;48.736;9.332;2024-03-22T14:25:15;19.60;1.00
20650;DHT22;10484;48.736;9.332;2024-03-22T14:27:42;19.60;1.00
20650;DHT22;10484;48.736;9.332;2024-03-22T14:30:12;19.60;1.00
20650;DHT22;10484;48.736;9.332;2024-03-22T14:32:38;19.60;1.00
20650;DHT22;10484;48.736;9.332;2024-03-22T14:35:04;19.60;1.00
20650;DHT22;10484;48.736;9.332;2024-03-22T14:37:31;19.60;1.00
20650;DHT22;10484;48.736;9.332;2024-03-22T14:39:57;19.60;1.00
20650;DHT22;10484;48.736;9.332;2024-03-22T14:42:23;19.70;1.00
20650;DHT22;10484;48.736;9.332;2024-03-22T14:44:48;19.70;1.00
20650;DHT22;10484;48.736;9.332;2024-03-22T14:47:14;19.70;1.00
20650;DHT22;10484;48.736;9.332;2024-03-22T14:49:39;19.70;1.00
20650;DHT22;10484;48.736;9.332;2024-03-22T14:52:06;19.70;1.00
20650;DHT22;10484;48.736;9.332;2024-03-22T14:54:31;19.60;1.00
20650;DHT22;10484;48.736;9.332;2024-03-22T14:56:57;19.60;1.00
20650;DHT22;10484;48.736;9.332;2024-03-22T14:59:22;19.50;1.00
20650;DHT22;10484;48.736;9.332;2024-03-22T15:01:48;19.50;1.00
20650;DHT22;10484;48.736;9.332;2024-03-22T15:04:14;19.50;1.00
20650;DHT22;10484;48.736;9.332;2024-03-22T15:06:39;19.50;1.00
20650;DHT22;10484;48.736;9.332;2024-03-22T15:09:05;19.40;1.00
20650;DHT22;10484;48.736;9.332;2024-03-22T15:11:36;19.40;1.00
20650;DHT22;10484;48.736;9.332;2024-03-22T15:14:02;19.30;1.00
20650;DHT22;10484;48.736;9.332;2024-03-22T15:16:28;19.30;1.00
20650;DHT22;10484;48.736;9.332;2024-03-22T15:18:54;19.30;1.00
20650;DHT22;10484;48.736;9.332;2024-03-22T15:21:19;19.30;1.00
20650;DHT22;10484;48.736;9.332;2024-03-22T15:23:46;19.20;1.00
20650;DHT22;10484;48.736;9.332;2024-03-22T15:26:11;19.20;1.00
20650;DHT22;10484;48.736;9.332;2024-03-22T15:28:37;19.30;1.00
20650;DHT22;10484;48.736;9.332;2024-03-22T15:31:03;19.30;1.00
20650;DHT22;10484;48.736;9.332;2024-03-22T15:33:28;19.30;1.00
20650;DHT22;10484;48.736;9.332;2024-03-22T15:35:55;19.30;1.00
20650;DHT22;10484;48.736;9.332;2024-03-22T15:38:21;19.20;1.00
20650;DHT22;10484;48.736;9.332;2024-03-22T15:40:50;19.20;1.00
20650;DHT22;10484;48.736;9.332;2024-03-22T15:43:17;19.20;1.00